Flight Track Log - Related Links

Times and Time Zones

All times are in EDT time to prevent confusion due to time zone crossing. See the JST743 flight status page for this flight to view local times or setup timezone preferences in your user account.

Time Position Orientation Groundspeed Altitude Reporting Facility
EDT Latitude Longitude Course Direction KTS MPH feet Rate Location/Type
Mon 03:06:00 AM -37.6592 144.8014 276° West 158 182 1,400  Level FlightAware ADS-B
Mon 03:06:01 AM -37.6591 144.8008 277° West 150 173 1,800 2,077 Climbing Aus ATC (RADAR)
Mon 03:06:26 AM -37.6566 144.7760 277° West 164 189 2,300 -923 Climbing Aus ATC (RADAR)
Mon 03:06:27 AM -37.6590 144.7996 277° West 159 183 1,400  Descending FlightAware ADS-B
Mon 03:06:47 AM -37.6545 144.7505 276° West 224 258 2,300 1,200 Climbing FlightAware ADS-B
Mon 03:07:07 AM -37.6551 144.7577 276° West 210 242 2,200 1,862 Descending FlightAware ADS-B
Mon 03:07:16 AM -37.6550 144.7076 252° West 280 322 3,200 4,800 Climbing FlightAware ADS-B
Mon 03:07:27 AM -37.6618 144.6910 234° Southwest 288 331 3,800 3,818 Climbing FlightAware ADS-B
Mon 03:07:38 AM -37.6715 144.6796 216° Southwest 286 329 4,600 -1,500 Climbing FlightAware ADS-B
Mon 03:07:47 AM -37.6579 144.6985 245° Southwest 285 328 3,300 4,435 Descending FlightAware ADS-B
Mon 03:08:01 AM -37.6979 144.6604 210° Southwest 281 323 6,300 7,000 Climbing FlightAware ADS-B
Mon 03:08:23 AM -37.7220 144.6432 201° Southwest 290 334 7,500 3,273 Climbing FlightAware ADS-B
Mon 03:08:34 AM -37.7374 144.6392 184° South 289 333 8,100 3,143 Climbing FlightAware ADS-B
Mon 03:08:44 AM -37.7507 144.6410 168° South 291 335 8,600 2,700 Climbing FlightAware ADS-B
Mon 03:08:54 AM -37.7607 144.6458 151° Southeast 294 338 9,000 2,800 Climbing FlightAware ADS-B
Mon 03:09:14 AM -37.7860 144.6653 148° Southeast 302 348 10,000 1,821 Climbing FlightAware ADS-B
Mon 03:09:50 AM -37.8329 144.7019 149° Southeast 350 403 10,700 1,636 Climbing FlightAware ADS-B
Mon 03:10:20 AM -37.8747 144.7333 150° Southeast 369 425 11,800 1,105 Climbing FlightAware ADS-B
Mon 03:10:28 AM -37.8653 144.7263 149° Southeast 366 421 11,400 643 Descending FlightAware ADS-B
Mon 03:10:48 AM -37.8896 144.7433 154° Southeast 375 432 12,100 3,692 Climbing FlightAware ADS-B
Mon 03:11:20 AM -37.9763 144.7864 158° South 378 435 14,600 3,353 Climbing FlightAware ADS-B
Mon 03:11:56 AM -38.0351 144.8155 159° South 397 457 15,900 2,273 Climbing FlightAware ADS-B
Mon 03:12:26 AM -38.0857 144.8405 159° South 402 463 17,100 2,200 Climbing FlightAware ADS-B
Mon 03:12:56 AM -38.1369 144.8658 159° South 411 473 18,100 2,032 Climbing FlightAware ADS-B
Mon 03:13:28 AM -38.1967 144.8954 159° South 418 481 19,200 2,129 Climbing FlightAware ADS-B
Mon 03:13:58 AM -38.2507 144.9221 159° South 421 484 20,300 1,800 Climbing FlightAware ADS-B
Mon 03:14:38 AM -38.3209 144.9570 159° South 434 499 21,300 1,437 Climbing FlightAware ADS-B
Mon 03:15:09 AM -38.3813 144.9870 159° South 442 509 22,000 1,565 Climbing FlightAware ADS-B
Mon 03:15:24 AM -38.4115 145.0019 158° South 436 502 22,500 1,800 Climbing FlightAware ADS-B
Mon 03:15:59 AM -38.4770 145.0345 159° South 446 513 23,500 1,569 Climbing FlightAware ADS-B
Mon 03:16:29 AM -38.5356 145.0635 159° South 451 519 24,200 1,900 Climbing FlightAware ADS-B
Mon 03:16:59 AM -38.5949 145.0933 159° South 442 509 25,400 2,000 Climbing FlightAware ADS-B
Mon 03:17:29 AM -38.6507 145.1213 159° South 442 509 26,200 1,500 Climbing FlightAware ADS-B
Mon 03:17:59 AM -38.7076 145.1498 159° South 448 516 26,900 1,279 Climbing FlightAware ADS-B
Mon 03:18:30 AM -38.7685 145.1803 159° South 454 522 27,500 1,475 Climbing FlightAware ADS-B
Mon 03:19:00 AM -38.8264 145.2095 158° South 452 520 28,400 1,500 Climbing FlightAware ADS-B
Mon 03:19:30 AM -38.8846 145.2389 159° South 449 517 29,000 600 Climbing FlightAware ADS-B
Mon 03:20:00 AM -38.9435 145.2686 159° South 448 516 29,000  Level FlightAware ADS-B
Mon 03:20:30 AM -39.0019 145.2981 158° South 446 513 29,000  Level FlightAware ADS-B
Mon 03:21:00 AM -39.0569 145.3261 158° South 442 509 29,000  Level FlightAware ADS-B
Mon 03:21:30 AM -39.1160 145.3560 158° South 440 506 29,000  Level FlightAware ADS-B
Mon 03:22:00 AM -39.1711 145.3840 158° South 440 506 29,000  Level FlightAware ADS-B
Mon 03:22:30 AM -39.2305 145.4143 158° South 441 507 29,000  Level FlightAware ADS-B
Mon 03:23:00 AM -39.2844 145.4419 158° South 441 507 29,000  Level FlightAware ADS-B
Mon 03:23:31 AM -39.3437 145.4722 158° South 440 506 29,000  Level FlightAware ADS-B
Mon 03:24:01 AM -39.4001 145.5010 158° South 438 504 29,000  Level FlightAware ADS-B
Mon 03:24:32 AM -39.4608 145.5322 158° South 438 504 29,000  Level FlightAware ADS-B
Mon 03:25:02 AM -39.5165 145.5610 158° South 437 503 29,000  Level FlightAware ADS-B
Mon 03:25:33 AM -39.5739 145.5905 158° South 437 503 29,000  Level FlightAware ADS-B
Mon 03:26:12 AM -39.6476 145.6286 158° South 438 504 29,000  Level FlightAware ADS-B
Mon 03:26:42 AM -39.7049 145.6583 158° South 437 503 29,000  Level FlightAware ADS-B
Mon 03:27:14 AM -39.7635 145.6886 158° South 437 503 29,000  Level FlightAware ADS-B
Mon 03:27:48 AM -39.8280 145.7220 158° South 436 502 29,000  Level FlightAware ADS-B
Mon 03:28:24 AM -39.8955 145.7571 158° South 436 502 29,000  Level FlightAware ADS-B
Mon 03:28:57 AM -39.9510 145.7861 158° South 436 502 29,000  Level FlightAware ADS-B (YMLT / LST)
Mon 03:29:31 AM -40.0211 145.8228 158° South 434 499 29,000  Level FlightAware ADS-B
Mon 03:30:05 AM -40.0839 145.8556 158° South 433 498 29,000  Level FlightAware ADS-B
Mon 03:30:38 AM -40.1427 145.8864 158° South 433 498 29,000  Level FlightAware ADS-B
Mon 03:31:08 AM -40.2021 145.9176 158° South 434 499 29,000  Level FlightAware ADS-B
Mon 03:31:45 AM -40.2699 145.9534 158° South 433 498 29,000  Level FlightAware ADS-B
Mon 03:32:15 AM -40.3218 145.9807 158° South 433 498 29,000 -774 Level FlightAware ADS-B
Mon 03:32:47 AM -40.3846 146.0139 158° South 431 496 28,200 -2,032 Descending FlightAware ADS-B (YMLT / LST)
Mon 03:33:17 AM -40.4392 146.0430 158° South 433 498 26,900 -2,557 Descending FlightAware ADS-B (YMLT / LST)
Mon 03:33:48 AM -40.4970 146.0738 158° South 434 499 25,600 -2,400 Descending FlightAware ADS-B
Mon 03:34:22 AM -40.5584 146.1063 158° South 432 497 24,300 -2,091 Descending FlightAware ADS-B (YMLT / LST)
Mon 03:34:54 AM -40.6204 146.1393 158° South 423 487 23,300 -1,938 Descending FlightAware ADS-B
Mon 03:35:27 AM -40.6785 146.1704 158° South 418 481 22,200 -1,905 Descending FlightAware ADS-B (YMLT / LST)
Mon 03:35:57 AM -40.7308 146.1982 158° South 408 470 21,300 -1,900 Descending FlightAware ADS-B (YMLT / LST)
Mon 03:36:27 AM -40.7837 146.2267 158° South 404 465 20,300 -1,967 Descending FlightAware ADS-B (YMLT / LST)
Mon 03:36:58 AM -40.8366 146.2551 158° South 399 459 19,300 -1,967 Descending FlightAware ADS-B (YMLT / LST)
Mon 03:37:28 AM -40.8898 146.2836 158° South 394 453 18,300 -1,770 Descending FlightAware ADS-B
Mon 03:37:59 AM -40.9404 146.3107 158° South 383 441 17,500 -1,672 Descending FlightAware ADS-B (YMLT / LST)
Mon 03:38:29 AM -40.9846 146.3347 158° South 377 434 16,600 -2,656 Descending FlightAware ADS-B
Mon 03:39:00 AM -41.0383 146.3637 158° South 390 449 14,800 -2,951 Descending FlightAware ADS-B (YMLT / LST)
Mon 03:39:30 AM -41.0898 146.3914 158° South 388 447 13,600 -2,262 Descending FlightAware ADS-B (YMLT / LST)
Mon 03:40:01 AM -41.1409 146.4191 158° South 384 442 12,500 -2,000 Descending FlightAware ADS-B (YMLT / LST)
Mon 03:40:15 AM -41.1640 146.4351 145° Southeast 373 429 12,100 -1,714 Descending FlightAware ADS-B (YMLT / LST)
Mon 03:40:29 AM -41.1767 146.4509 127° Southeast 362 417 11,700 -1,636 Descending FlightAware ADS-B
Mon 03:40:59 AM -41.2050 146.5115 121° Southeast 348 400 10,900 -1,433 Descending FlightAware ADS-B
Mon 03:41:36 AM -41.2350 146.5785 121° Southeast 323 372 10,100 -1,300 Descending FlightAware ADS-B (YMLT / LST)
Mon 03:41:59 AM -41.2520 146.6157 121° Southeast 308 354 9,600 -1,421 Descending FlightAware ADS-B
Mon 03:42:14 AM -41.2627 146.6393 121° Southeast 302 348 9,200 -1,600 Descending FlightAware ADS-B
Mon 03:42:29 AM -41.2735 146.6631 121° Southeast 297 342 8,800 -1,765 Descending FlightAware ADS-B
Mon 03:42:48 AM -41.2871 146.6931 121° Southeast 297 342 8,200 -1,579 Descending FlightAware ADS-B
Mon 03:43:07 AM -41.3005 146.7228 121° Southeast 290 334 7,800 -1,317 Descending FlightAware ADS-B (YMLT / LST)
Mon 03:43:29 AM -41.3151 146.7552 121° Southeast 286 329 7,300 -1,171 Descending FlightAware ADS-B
Mon 03:43:48 AM -41.3265 146.7799 122° Southeast 281 323 7,000 -1,077 Descending FlightAware ADS-B
Mon 03:44:08 AM -41.3415 146.8124 121° Southeast 275 316 6,600 -1,029 Descending FlightAware ADS-B (YMLT / LST)
Mon 03:44:23 AM -41.3512 146.8339 121° Southeast 265 305 6,400 -800 Descending FlightAware ADS-B (YMLT / LST)
Mon 03:44:38 AM -41.3610 146.8557 121° Southeast 252 290 6,200 -833 Descending FlightAware ADS-B
Mon 03:44:59 AM -41.3699 146.8755 121° Southeast 246 283 5,900 -1,171 Descending FlightAware ADS-B
Mon 03:45:19 AM -41.3833 146.9051 121° Southeast 245 282 5,400 -1,350 Descending FlightAware ADS-B
Mon 03:45:39 AM -41.3954 146.9320 121° Southeast 236 272 5,000 -1,412 Descending FlightAware ADS-B (YMLT / LST)
Mon 03:46:10 AM -41.4124 146.9718 111° Southeast 230 265 4,200 -1,304 Descending FlightAware ADS-B (YMLT / LST)
Mon 03:46:25 AM -41.4126 146.9927 76° East 223 257 4,000 -1,091 Descending FlightAware ADS-B (YMLT / LST)
Mon 03:46:54 AM -41.4057 147.0295 79° East 222 255 3,400 -735 Descending FlightAware ADS-B (YMLT / LST)
Mon 03:47:14 AM -41.4012 147.0568 77° East 205 236 3,400 -136 Level FlightAware ADS-B (YMLT / LST)
Mon 03:47:38 AM -41.3992 147.0804 135° Southeast 188 216 3,300 -522 Descending FlightAware ADS-B (YMLT / LST)
Mon 03:48:00 AM -41.4160 147.1009 152° Southeast 188 216 3,000 -878 Descending FlightAware ADS-B (YMLT / LST)
Mon 03:48:19 AM -41.4300 147.1125 147° Southeast 185 213 2,700 -1,059 Descending FlightAware ADS-B (YMLT / LST)
Mon 03:48:34 AM -41.4406 147.1217 147° Southeast 184 212 2,400 -623 Descending FlightAware ADS-B (YMLT / LST)
Mon 03:49:36 AM -41.4822 147.1571 147° Southeast 161 185 1,900 -821 Descending Aus ATC (RADAR)
Mon 03:50:31 AM -41.5121 147.1827 147° Southeast 142 163 800 -1,054 Descending FlightAware ADS-B (YMLT / LST)
Mon 03:50:50 AM -41.5228 147.1918 147° Southeast 141 162 600 -735 Descending FlightAware ADS-B (YMLT / LST)
Mon 03:51:20 AM -41.5387 147.2055 147° Southeast 140 161 200 -800 Descending FlightAware ADS-B (YMLT / LST)

Login

Don't have an account? Register now (free) for customized features, flight alerts, and more!